Aviation Digital Data Service (ADDS)

Output produced by METARs form (0300 UTC 24 July 2016)
found at http://aviationweather.gov/adds/metars/
 
KPWM 232330Z 2400/2424 32004KT P6SM FEW015 SCT050 BKN100